首页
METAR-TAF:

METAR-TAF

机场 :

Fort Riley, 堪薩斯州, 美国

纬度: 39-06N, 经度: 096-46W, 海拔: 325米

当前天气观测

该预报发布于46分钟前的03:56 UTC
风速3节,风向西南
温度 2°C
湿度 51%
气压 1020 hPa
能見度: 16.1公里
天空无云

METAR: KFRI 140356Z AUTO 23003KT 10SM CLR 02/M07 A3013 RMK AO2 SLP210 T00221066

时间: 22:42 (04:42 UTC)

预报

该预报发布于7小时和42分钟前的21:00 UTC
预报有效从13日的 21点(UTC)到 15日的 03点(UTC)
风速9节,风向西
能见度10公里或以上
少量云层高于20000英尺
成为
从 14日的 02点(UTC)到 14日的 03点(UTC)
风速6节,风向西北
能见度10公里或以上
散云层高于1500英尺
多云层高于2500英尺
成为
从 14日的 09点(UTC)到 14日的 10点(UTC)
风速6节,风向北转西北
能见度10公里或以上
多云层高于1500英尺
成为
从 14日的 16点(UTC)到 14日的 17点(UTC)
风速6节,风向多变
能见度10公里或以上
天空无云

TAF: KFRI 132100Z 1321/1503 27009KT 9999 FEW200 QNH2995INS BECMG 1402/1403 32006KT 9999 SCT015 BKN025 620252 QNH3000INS BECMG 1409/1410 33006KT 9999 BKN015 620152 QNH3025INS BECMG 1416/1417 VRB06KT 9999 SKC 510033 QNH3028INS TX09/1421Z TNM01/1411Z

超过4000个机场的气象观测和天气预报(METAR&TAF报告)。

可查询的气象台以黄色和红色小点在地图上表示。

将鼠标移到小点上方,可查看气象台名称。

然后点击查看天气观测和预报。

如需切换地图:点击带黑十字的绿色按钮放大地图;点击带横线的绿色按钮缩小地图;或者点击绿色箭头查看邻近地区的地图。


METAR-TAF: